createdAt,value
2022-11-17T00:01:23.675Z,6.67
2022-11-17T00:03:49.985Z,7.22
2022-11-17T00:06:12.533Z,9.90
2022-11-17T00:08:34.889Z,7.88
2022-11-17T00:11:03.055Z,6.45
2022-11-17T00:13:44.199Z,5.68
2022-11-17T00:16:06.725Z,6.07
2022-11-17T00:18:47.480Z,6.18
2022-11-17T00:21:21.356Z,6.88
2022-11-17T00:23:47.435Z,5.25
2022-11-17T00:26:10.091Z,7.40
2022-11-17T00:28:34.569Z,5.72
2022-11-17T00:31:15.648Z,4.47
2022-11-17T00:33:56.868Z,5.20
2022-11-17T00:36:19.183Z,5.50
2022-11-17T00:38:41.503Z,4.47
2022-11-17T00:41:03.821Z,6.67
2022-11-17T00:43:26.143Z,5.77
2022-11-17T00:45:48.450Z,4.20
2022-11-17T00:48:10.890Z,4.30
2022-11-17T00:50:33.204Z,6.47
2022-11-17T00:52:55.546Z,4.87
2022-11-17T00:55:17.898Z,5.00
2022-11-17T00:57:40.284Z,4.85
2022-11-17T01:00:02.709Z,6.47
2022-11-17T01:02:25.043Z,7.07
2022-11-17T01:04:47.390Z,6.07
2022-11-17T01:07:09.780Z,4.23
2022-11-17T01:09:32.164Z,4.65
2022-11-17T01:11:54.493Z,5.27
2022-11-17T01:14:22.928Z,5.27
2022-11-17T01:16:45.382Z,4.97
2022-11-17T01:19:07.847Z,5.15
2022-11-17T01:21:30.645Z,6.05
2022-11-17T01:23:55.210Z,5.90
2022-11-17T01:26:22.939Z,4.53
2022-11-17T01:28:45.354Z,5.35
2022-11-17T01:31:10.821Z,5.15
2022-11-17T01:33:33.784Z,4.93
2022-11-17T01:38:18.511Z,5.43
2022-11-17T01:40:40.837Z,6.47
2022-11-17T01:43:10.222Z,6.57
2022-11-17T01:45:32.676Z,4.80
2022-11-17T01:47:59.339Z,5.57
2022-11-17T01:50:40.131Z,8.05
2022-11-17T01:53:05.664Z,4.43
2022-11-17T01:55:54.296Z,6.15
2022-11-17T01:58:27.306Z,4.43
2022-11-17T02:00:49.619Z,5.80
2022-11-17T02:03:12.244Z,4.80
2022-11-17T02:06:07.246Z,5.78
2022-11-17T02:08:31.804Z,6.15
2022-11-17T02:10:54.246Z,6.22
2022-11-17T02:13:16.591Z,5.13
2022-11-17T02:15:38.870Z,4.43
2022-11-17T02:18:01.217Z,4.60
2022-11-17T02:20:45.074Z,7.82
2022-11-17T02:23:50.518Z,5.60
2022-11-17T02:26:48.470Z,6.40
2022-11-17T02:29:17.506Z,5.28
2022-11-17T02:32:03.126Z,4.70
2022-11-17T02:34:25.288Z,5.55
2022-11-17T02:37:06.700Z,4.82
2022-11-17T02:39:41.838Z,4.10
2022-11-17T02:43:00.124Z,5.15
2022-11-17T02:45:25.852Z,8.70
2022-11-17T02:47:48.941Z,5.68
2022-11-17T02:50:11.258Z,5.53
2022-11-17T02:52:33.558Z,4.77
2022-11-17T02:55:01.177Z,5.47
2022-11-17T02:57:37.176Z,5.78
2022-11-17T03:00:18.801Z,5.32
2022-11-17T03:04:01.118Z,6.20
2022-11-17T03:06:39.929Z,4.75
2022-11-17T03:09:31.607Z,5.88
2022-11-17T03:12:25.866Z,4.75
2022-11-17T03:14:57.129Z,5.18
2022-11-17T03:18:12.326Z,7.95
2022-11-17T03:20:53.975Z,5.40
2022-11-17T03:23:23.563Z,5.63
2022-11-17T03:25:49.077Z,5.63
2022-11-17T03:28:11.368Z,7.78
2022-11-17T03:30:37.634Z,5.85
2022-11-17T03:33:05.271Z,5.28
2022-11-17T03:35:29.752Z,6.97
2022-11-17T03:37:54.993Z,5.97
2022-11-17T03:40:20.100Z,7.15
2022-11-17T03:42:45.089Z,6.63
2022-11-17T03:45:15.189Z,6.05
2022-11-17T03:47:37.561Z,5.20
2022-11-17T03:50:02.559Z,4.63
2022-11-17T03:52:25.281Z,6.53
2022-11-17T03:54:47.622Z,6.35
2022-11-17T03:57:30.581Z,5.53
2022-11-17T04:00:13.269Z,6.68
2022-11-17T04:02:35.650Z,5.10
2022-11-17T04:05:06.814Z,4.90
2022-11-17T04:07:29.232Z,5.63
2022-11-17T04:09:51.634Z,5.75
2022-11-17T04:12:32.556Z,5.87
2022-11-17T04:15:13.124Z,7.38
2022-11-17T04:17:35.510Z,6.40
2022-11-17T04:19:57.796Z,6.80
2022-11-17T04:22:20.100Z,6.07
2022-11-17T04:24:42.388Z,6.63
2022-11-17T04:27:23.289Z,8.90
2022-11-17T04:29:45.595Z,8.80
2022-11-17T04:32:07.911Z,7.10
2022-11-17T04:34:30.199Z,7.17
2022-11-17T04:36:52.570Z,7.80
2022-11-17T04:39:15.514Z,9.18
2022-11-17T04:41:56.553Z,9.82
2022-11-17T04:44:19.825Z,7.25
2022-11-17T04:49:05.137Z,7.88
2022-11-17T04:51:27.817Z,8.32
2022-11-17T04:53:50.242Z,14.90
2022-11-17T04:56:13.276Z,7.70
2022-11-17T04:58:35.654Z,6.60
2022-11-17T05:01:12.365Z,6.82
2022-11-17T05:03:35.041Z,7.50
2022-11-17T05:05:57.524Z,6.57
2022-11-17T05:08:19.798Z,6.87
2022-11-17T05:11:00.801Z,7.80
2022-11-17T05:13:25.037Z,7.45
2022-11-17T05:16:06.493Z,8.38
2022-11-17T05:18:28.745Z,9.18
2022-11-17T05:20:51.117Z,9.82
2022-11-17T05:23:32.344Z,8.13
2022-11-17T05:25:54.800Z,7.95
2022-11-17T05:28:17.081Z,9.33
2022-11-17T05:30:39.365Z,8.77
2022-11-17T05:32:41.371Z,10.25
2022-11-17T05:34:43.404Z,10.15
2022-11-17T05:36:45.788Z,14.18
2022-11-17T05:38:49.365Z,10.85
2022-11-17T05:40:52.384Z,12.18
2022-11-17T05:42:57.184Z,11.85
2022-11-17T05:45:00.294Z,14.55
2022-11-17T05:47:02.891Z,10.63
2022-11-17T05:51:13.880Z,11.95
2022-11-17T05:53:16.333Z,12.23
2022-11-17T05:57:27.061Z,12.50
2022-11-17T05:59:48.908Z,8.55
2022-11-17T06:02:19.020Z,9.07
2022-11-17T06:04:21.752Z,9.65
2022-11-17T06:06:23.905Z,14.30
2022-11-17T06:10:29.384Z,12.25
2022-11-17T06:14:35.606Z,10.27
2022-11-17T06:16:41.150Z,12.57
2022-11-17T06:18:50.965Z,12.38
2022-11-17T06:20:53.958Z,15.10
2022-11-17T06:22:57.932Z,12.32
2022-11-17T06:25:00.570Z,10.25
2022-11-17T06:29:05.492Z,13.02
2022-11-17T06:33:12.967Z,13.25
2022-11-17T06:35:16.573Z,12.02
2022-11-17T06:37:19.689Z,13.48
2022-11-17T06:39:22.083Z,18.05
2022-11-17T06:41:24.153Z,14.32
2022-11-17T06:43:27.234Z,16.30
2022-11-17T06:45:34.264Z,16.88
2022-11-17T06:47:36.938Z,16.15
2022-11-17T06:49:39.860Z,12.95
2022-11-17T06:52:00.289Z,10.63
2022-11-17T06:54:20.663Z,11.27
2022-11-17T06:56:43.713Z,15.93
2022-11-17T06:59:06.110Z,17.05
2022-11-17T07:01:28.404Z,12.15
2022-11-17T07:03:50.756Z,15.40
2022-11-17T07:06:13.120Z,16.43
2022-11-17T07:08:35.979Z,14.43
2022-11-17T07:11:06.830Z,11.45
2022-11-17T07:13:29.162Z,13.60
2022-11-17T07:15:51.911Z,10.83
2022-11-17T07:18:14.195Z,12.38
2022-11-17T07:20:36.488Z,10.73
2022-11-17T07:23:00.043Z,9.67
2022-11-17T07:25:22.710Z,11.65
2022-11-17T07:27:45.216Z,13.63
2022-11-17T07:30:09.728Z,14.15
2022-11-17T07:32:36.444Z,10.75
2022-11-17T07:34:59.876Z,9.98
2022-11-17T07:37:22.187Z,11.50
2022-11-17T07:39:44.487Z,10.20
2022-11-17T07:42:06.960Z,10.40
2022-11-17T07:44:29.235Z,14.85
2022-11-17T07:46:51.536Z,12.05
2022-11-17T07:49:13.815Z,11.40
2022-11-17T07:51:36.150Z,13.00
2022-11-17T07:53:58.458Z,10.02
2022-11-17T07:56:20.733Z,12.40
2022-11-17T07:58:43.119Z,13.83
2022-11-17T08:01:10.789Z,11.55
2022-11-17T08:03:33.249Z,11.40
2022-11-17T08:05:55.581Z,9.90
2022-11-17T08:08:17.871Z,14.63
2022-11-17T08:10:40.191Z,18.70
2022-11-17T08:13:02.628Z,28.23
2022-11-17T08:15:24.942Z,14.60
2022-11-17T08:17:53.353Z,16.53
2022-11-17T08:20:15.833Z,16.55
2022-11-17T08:22:38.260Z,16.15
2022-11-17T08:25:00.601Z,13.68
2022-11-17T08:27:22.878Z,16.23
2022-11-17T08:29:45.614Z,16.87
2022-11-17T08:32:07.964Z,16.90
2022-11-17T08:34:30.247Z,23.30
2022-11-17T08:36:52.542Z,17.73
2022-11-17T08:39:15.481Z,14.17
2022-11-17T08:41:37.835Z,11.73
2022-11-17T08:44:00.148Z,15.52
2022-11-17T08:46:22.483Z,16.73
2022-11-17T08:48:44.767Z,15.43
2022-11-17T08:51:08.119Z,14.13
2022-11-17T08:53:30.421Z,12.90
2022-11-17T08:55:52.902Z,18.08
2022-11-17T08:58:15.326Z,12.68
2022-11-17T09:00:37.678Z,13.65
2022-11-17T09:02:59.999Z,13.15
2022-11-17T09:05:22.311Z,13.30
2022-11-17T09:07:44.711Z,14.10
2022-11-17T09:10:10.876Z,10.70
2022-11-17T09:12:33.178Z,11.38
2022-11-17T09:14:55.496Z,11.40
2022-11-17T09:17:17.823Z,14.30
2022-11-17T09:19:40.185Z,12.50
2022-11-17T09:22:02.472Z,12.88
2022-11-17T09:24:26.695Z,8.97
2022-11-17T09:26:48.991Z,9.95
2022-11-17T09:29:11.290Z,8.98
2022-11-17T09:31:33.842Z,10.27
2022-11-17T09:33:59.428Z,10.85
2022-11-17T09:36:23.220Z,13.45
2022-11-17T09:38:46.780Z,14.17
2022-11-17T09:41:22.828Z,10.55
2022-11-17T09:44:15.099Z,13.50
2022-11-17T09:47:18.208Z,12.60
2022-11-17T09:49:59.684Z,11.80
2022-11-17T09:52:42.794Z,14.10
2022-11-17T09:55:41.788Z,10.80
2022-11-17T09:58:18.095Z,17.10
2022-11-17T10:00:42.408Z,11.93
2022-11-17T10:03:17.101Z,14.07
2022-11-17T10:05:39.444Z,11.95
2022-11-17T10:08:07.325Z,9.63
2022-11-17T10:10:45.369Z,17.40
2022-11-17T10:13:19.727Z,8.75
2022-11-17T10:15:47.372Z,10.35
2022-11-17T10:18:13.778Z,11.20
2022-11-17T10:20:36.073Z,12.13
2022-11-17T10:22:58.375Z,12.60
2022-11-17T10:25:41.758Z,11.20
2022-11-17T10:28:08.148Z,11.18
2022-11-17T10:30:30.458Z,13.48
2022-11-17T10:32:57.817Z,10.85
2022-11-17T10:35:21.965Z,10.63
2022-11-17T10:38:02.079Z,12.15
2022-11-17T10:40:27.419Z,11.10
2022-11-17T10:43:02.669Z,11.88
2022-11-17T10:45:25.075Z,10.23
2022-11-17T10:47:47.433Z,12.85
2022-11-17T10:50:12.923Z,15.40
2022-11-17T10:52:35.190Z,10.07
2022-11-17T10:55:21.050Z,12.35
2022-11-17T10:57:44.715Z,11.18
2022-11-17T11:00:23.065Z,11.10
2022-11-17T11:02:45.381Z,10.13
2022-11-17T11:05:12.071Z,13.75
2022-11-17T11:07:34.481Z,10.00
2022-11-17T11:10:32.054Z,10.90
2022-11-17T11:13:16.242Z,9.75
2022-11-17T11:15:38.621Z,8.43
2022-11-17T11:18:00.904Z,9.93
2022-11-17T11:20:33.535Z,10.15
2022-11-17T11:23:13.109Z,12.90
2022-11-17T11:25:52.942Z,8.65
2022-11-17T11:29:00.197Z,12.48
2022-11-17T11:31:34.613Z,16.15
2022-11-17T11:34:19.196Z,11.82
2022-11-17T11:37:20.323Z,10.98
2022-11-17T11:40:15.628Z,11.50
2022-11-17T11:43:29.719Z,11.32
2022-11-17T11:46:34.047Z,10.32
2022-11-17T11:51:27.379Z,10.93
2022-11-17T11:53:54.397Z,10.18
2022-11-17T11:56:22.777Z,10.05
2022-11-17T11:58:24.946Z,16.27
2022-11-17T12:02:39.633Z,12.10
2022-11-17T12:05:21.431Z,11.13
2022-11-17T12:07:51.906Z,11.13
2022-11-17T12:10:22.270Z,17.15
2022-11-17T12:12:35.569Z,10.95
2022-11-17T12:14:38.784Z,10.95
2022-11-17T12:16:44.476Z,10.40
2022-11-17T12:18:46.763Z,11.13
2022-11-17T12:21:13.236Z,9.75
2022-11-17T12:23:54.617Z,12.43
2022-11-17T12:25:58.621Z,10.93
2022-11-17T12:28:36.856Z,12.40
2022-11-17T12:30:45.408Z,10.52
2022-11-17T12:32:52.117Z,12.02
2022-11-17T12:35:24.990Z,13.02
2022-11-17T12:37:27.508Z,14.10
2022-11-17T12:40:02.191Z,11.57
2022-11-17T12:42:08.210Z,9.95
2022-11-17T12:44:43.557Z,11.00
2022-11-17T12:46:48.056Z,10.00
2022-11-17T12:49:07.640Z,17.05
2022-11-17T12:51:27.177Z,12.05
2022-11-17T12:53:39.301Z,10.65
2022-11-17T12:56:10.685Z,11.50
2022-11-17T12:58:35.582Z,16.67
2022-11-17T13:01:16.672Z,11.50
2022-11-17T13:03:26.617Z,14.45
2022-11-17T13:05:30.202Z,20.58
2022-11-17T13:07:33.371Z,11.23
2022-11-17T13:09:36.711Z,10.65
2022-11-17T13:11:39.412Z,13.88
2022-11-17T13:13:45.727Z,15.23
2022-11-17T13:15:52.094Z,14.48
2022-11-17T13:17:55.316Z,11.13
2022-11-17T13:20:24.915Z,23.55
2022-11-17T13:22:27.969Z,13.52
2022-11-17T13:24:32.932Z,11.65
2022-11-17T13:26:38.124Z,12.60
2022-11-17T13:28:40.444Z,12.02
2022-11-17T13:30:43.354Z,12.07
2022-11-17T13:32:45.887Z,15.55
2022-11-17T13:37:03.176Z,12.55
2022-11-17T13:39:16.845Z,21.08
2022-11-17T13:41:20.071Z,11.77
2022-11-17T13:43:23.800Z,12.05
2022-11-17T13:45:26.962Z,13.15
2022-11-17T13:47:48.419Z,12.93
2022-11-17T13:50:21.494Z,12.25
2022-11-17T13:52:41.936Z,14.48
2022-11-17T13:54:46.532Z,15.60
2022-11-17T13:56:54.375Z,18.58
2022-11-17T13:58:56.488Z,20.08
2022-11-17T14:00:59.042Z,17.45
2022-11-17T14:03:04.754Z,13.85
2022-11-17T14:05:14.510Z,15.45
2022-11-17T14:07:30.146Z,15.55
2022-11-17T14:09:34.581Z,16.77
2022-11-17T14:11:41.012Z,15.02
2022-11-17T14:13:52.857Z,14.50
2022-11-17T14:15:58.151Z,20.38
2022-11-17T14:18:03.549Z,21.63
2022-11-17T14:20:31.874Z,15.18
2022-11-17T14:22:34.245Z,19.27
2022-11-17T14:24:36.923Z,15.80
2022-11-17T14:28:48.564Z,19.30
2022-11-17T14:30:54.928Z,14.70
2022-11-17T14:33:05.342Z,13.48
2022-11-17T14:35:14.683Z,15.75
2022-11-17T14:37:17.064Z,14.45
2022-11-17T14:39:19.133Z,23.67
2022-11-17T14:41:21.892Z,18.90
2022-11-17T14:43:24.113Z,19.05
2022-11-17T14:45:26.304Z,20.42
2022-11-17T14:47:29.365Z,16.67
2022-11-17T14:49:31.556Z,18.15
2022-11-17T14:51:33.629Z,20.63
2022-11-17T14:53:41.775Z,16.38
2022-11-17T14:55:44.854Z,17.83
2022-11-17T14:57:47.462Z,18.50
2022-11-17T14:59:49.757Z,17.25
2022-11-17T15:01:51.808Z,15.82
2022-11-17T15:03:53.918Z,16.73
2022-11-17T15:05:57.174Z,16.15
2022-11-17T15:07:59.152Z,20.23
2022-11-17T15:10:01.446Z,21.02
2022-11-17T15:12:03.987Z,15.77
2022-11-17T15:14:06.094Z,16.27
2022-11-17T15:16:08.792Z,19.63
2022-11-17T15:18:12.608Z,15.63
2022-11-17T15:20:15.099Z,16.83
2022-11-17T15:22:18.030Z,16.58
2022-11-17T15:24:21.758Z,16.80
2022-11-17T15:26:24.551Z,22.45
2022-11-17T15:28:30.491Z,18.13
2022-11-17T15:30:33.684Z,14.70
2022-11-17T15:32:37.228Z,19.45
2022-11-17T15:34:39.611Z,17.92
2022-11-17T15:36:41.978Z,21.20
2022-11-17T15:38:45.185Z,20.73
2022-11-17T15:40:54.598Z,18.65
2022-11-17T15:42:57.603Z,17.77
2022-11-17T15:45:00.136Z,20.88
2022-11-17T15:47:02.111Z,16.27
2022-11-17T15:49:04.314Z,21.02
2022-11-17T15:51:10.165Z,15.90
2022-11-17T15:53:12.818Z,16.90
2022-11-17T15:55:15.828Z,22.10
2022-11-17T15:57:17.804Z,15.68
2022-11-17T16:01:32.053Z,20.40
2022-11-17T16:03:34.033Z,19.02
2022-11-17T16:05:37.942Z,22.83
2022-11-17T16:07:40.286Z,29.42
2022-11-17T16:09:44.955Z,23.50
2022-11-17T16:11:49.604Z,27.70
2022-11-17T16:13:56.188Z,25.80
2022-11-17T16:15:58.396Z,29.38
2022-11-17T16:18:20.788Z,30.30
2022-11-17T16:20:43.192Z,24.45
2022-11-17T16:23:05.507Z,29.75
2022-11-17T16:25:27.798Z,28.60
2022-11-17T16:27:50.125Z,32.43
2022-11-17T16:30:13.163Z,24.38
2022-11-17T16:32:35.461Z,24.67
2022-11-17T16:34:57.736Z,34.33
2022-11-17T16:37:20.033Z,32.23
2022-11-17T16:39:42.382Z,25.63
2022-11-17T16:42:05.339Z,25.35
2022-11-17T16:44:27.685Z,32.95
2022-11-17T16:46:50.152Z,36.20
2022-11-17T16:49:14.705Z,50.22
2022-11-17T16:51:37.369Z,56.55
2022-11-17T16:54:06.935Z,58.83
2022-11-17T16:56:29.339Z,53.10
2022-11-17T16:58:51.842Z,52.42
2022-11-17T17:01:19.570Z,46.80
2022-11-17T17:03:42.070Z,45.28
2022-11-17T17:06:07.227Z,36.35
2022-11-17T17:08:30.084Z,34.70
2022-11-17T17:10:52.414Z,33.63
2022-11-17T17:13:14.746Z,34.22
2022-11-17T17:15:37.027Z,36.95
2022-11-17T17:17:59.384Z,41.53
2022-11-17T17:20:21.699Z,40.55
2022-11-17T17:22:43.976Z,39.65
2022-11-17T17:25:07.748Z,36.10
2022-11-17T17:27:31.253Z,31.13
2022-11-17T17:29:56.994Z,35.65
2022-11-17T17:32:19.334Z,48.38
2022-11-17T17:34:41.615Z,54.80
2022-11-17T17:37:03.935Z,44.42
2022-11-17T17:39:26.205Z,43.75
2022-11-17T17:41:48.791Z,33.72
2022-11-17T17:44:16.311Z,36.25
2022-11-17T17:46:39.015Z,34.33
2022-11-17T17:49:01.420Z,44.85
2022-11-17T17:51:25.037Z,54.95
2022-11-17T17:53:50.333Z,60.88
2022-11-17T17:56:14.095Z,61.13
2022-11-17T17:58:40.539Z,60.10
2022-11-17T18:01:28.929Z,64.28
2022-11-17T18:03:53.751Z,67.60
2022-11-17T18:06:21.083Z,56.22
2022-11-17T18:08:43.640Z,62.22
2022-11-17T18:11:17.176Z,65.07
2022-11-17T18:13:41.641Z,63.75
2022-11-17T18:16:24.303Z,64.38
2022-11-17T18:18:46.693Z,63.35
2022-11-17T18:21:10.943Z,68.20
2022-11-17T18:23:36.215Z,52.55
2022-11-17T18:25:58.564Z,49.42
2022-11-17T18:28:20.955Z,46.63
2022-11-17T18:30:43.251Z,45.78
2022-11-17T18:33:05.580Z,45.78
2022-11-17T18:35:27.859Z,40.92
2022-11-17T18:37:50.171Z,48.90
2022-11-17T18:40:12.987Z,44.13
2022-11-17T18:42:35.275Z,42.15
2022-11-17T18:44:57.584Z,46.00
2022-11-17T18:47:19.866Z,51.23
2022-11-17T18:49:42.245Z,51.73
2022-11-17T18:52:04.636Z,62.00
2022-11-17T18:54:26.922Z,51.75
2022-11-17T18:56:50.157Z,53.33
2022-11-17T19:01:35.150Z,47.03
2022-11-17T19:04:00.836Z,50.38
2022-11-17T19:06:24.886Z,53.38
2022-11-17T19:08:48.227Z,51.13
2022-11-17T19:11:10.979Z,48.50
2022-11-17T19:13:35.922Z,42.75
2022-11-17T19:16:23.744Z,49.00
2022-11-17T19:18:47.305Z,46.65
2022-11-17T19:21:15.221Z,46.45
2022-11-17T19:23:39.594Z,42.88
2022-11-17T19:26:06.503Z,44.20
2022-11-17T19:28:28.808Z,46.75
2022-11-17T19:30:51.195Z,47.07
2022-11-17T19:33:13.487Z,43.75
2022-11-17T19:35:40.179Z,42.42
2022-11-17T19:38:02.496Z,48.38
2022-11-17T19:40:24.960Z,45.03
2022-11-17T19:42:49.185Z,45.95
2022-11-17T19:45:11.489Z,46.08
2022-11-17T19:47:33.779Z,46.83
2022-11-17T19:49:56.334Z,46.17
2022-11-17T19:52:18.761Z,47.03
2022-11-17T19:54:41.118Z,46.75
2022-11-17T19:57:03.453Z,44.28
2022-11-17T19:59:25.775Z,45.33
2022-11-17T20:01:48.119Z,51.45
2022-11-17T20:04:10.668Z,47.03
2022-11-17T20:06:37.117Z,51.40
2022-11-17T20:08:59.489Z,42.95
2022-11-17T20:11:24.042Z,47.72
2022-11-17T20:13:46.518Z,41.35
2022-11-17T20:16:15.499Z,41.28
2022-11-17T20:18:37.811Z,44.22
2022-11-17T20:21:00.198Z,37.83
2022-11-17T20:23:22.524Z,38.45
2022-11-17T20:25:45.104Z,36.38
2022-11-17T20:28:08.554Z,41.85
2022-11-17T20:30:30.861Z,43.03
2022-11-17T20:32:53.173Z,41.70
2022-11-17T20:35:15.552Z,38.97
2022-11-17T20:37:37.909Z,38.95
2022-11-17T20:40:00.256Z,38.83
2022-11-17T20:42:22.591Z,39.38
2022-11-17T20:44:45.523Z,39.58
2022-11-17T20:47:07.818Z,36.65
2022-11-17T20:49:30.099Z,40.30
2022-11-17T20:51:52.522Z,40.75
2022-11-17T20:54:15.033Z,40.10
2022-11-17T20:56:37.342Z,38.17
2022-11-17T20:58:59.665Z,40.15
2022-11-17T21:01:24.003Z,37.55
2022-11-17T21:03:46.788Z,35.55
2022-11-17T21:06:09.248Z,36.65
2022-11-17T21:08:33.682Z,38.83
2022-11-17T21:11:06.566Z,40.58
2022-11-17T21:13:29.307Z,42.75
2022-11-17T21:16:11.433Z,49.15
2022-11-17T21:18:33.907Z,37.70
2022-11-17T21:20:59.318Z,43.40
2022-11-17T21:23:21.641Z,40.75
2022-11-17T21:25:43.909Z,45.63
2022-11-17T21:28:06.221Z,39.83
2022-11-17T21:30:28.518Z,38.83
2022-11-17T21:32:50.851Z,41.00
2022-11-17T21:35:13.158Z,40.13
2022-11-17T21:37:35.445Z,42.55
2022-11-17T21:39:57.972Z,45.15
2022-11-17T21:42:20.337Z,47.00
2022-11-17T21:44:42.642Z,44.50
2022-11-17T21:47:05.006Z,47.15
2022-11-17T21:49:27.304Z,45.75
2022-11-17T21:51:49.601Z,50.85
2022-11-17T21:54:11.917Z,44.05
2022-11-17T21:56:34.288Z,47.70
2022-11-17T21:59:01.044Z,38.53
2022-11-17T22:01:23.808Z,36.92
2022-11-17T22:03:46.120Z,40.55
2022-11-17T22:06:13.718Z,41.00
2022-11-17T22:08:37.638Z,43.10
2022-11-17T22:11:04.602Z,39.75
2022-11-17T22:13:26.912Z,43.60
2022-11-17T22:15:49.236Z,46.78
2022-11-17T22:18:11.580Z,45.35
2022-11-17T22:20:33.938Z,52.58
2022-11-17T22:22:56.729Z,49.47
2022-11-17T22:25:43.583Z,50.83
2022-11-17T22:28:01.424Z,48.72
2022-11-17T22:30:23.733Z,48.63
2022-11-17T22:32:46.062Z,51.10
2022-11-17T22:35:08.515Z,47.55
2022-11-17T22:37:30.876Z,59.08
2022-11-17T22:39:53.214Z,52.28
2022-11-17T22:42:18.756Z,44.50
2022-11-17T22:44:41.091Z,44.30
2022-11-17T22:47:03.452Z,48.92
2022-11-17T22:49:25.785Z,48.33
2022-11-17T22:52:03.445Z,44.53
2022-11-17T22:54:25.797Z,50.58
2022-11-17T22:56:48.165Z,49.03
2022-11-17T22:59:10.541Z,48.38
2022-11-17T23:01:32.886Z,50.08
2022-11-17T23:03:55.274Z,48.70
2022-11-17T23:06:17.692Z,52.55
2022-11-17T23:08:40.126Z,53.00
2022-11-17T23:11:35.622Z,55.08
2022-11-17T23:13:49.752Z,52.50
2022-11-17T23:16:12.214Z,57.40
2022-11-17T23:18:36.603Z,54.03
2022-11-17T23:21:02.473Z,53.80
2022-11-17T23:23:24.903Z,56.90
2022-11-17T23:25:47.450Z,56.70
2022-11-17T23:28:09.869Z,55.85
2022-11-17T23:30:33.020Z,57.55
2022-11-17T23:35:18.162Z,56.03
2022-11-17T23:37:40.620Z,55.72
2022-11-17T23:40:03.049Z,53.20
2022-11-17T23:42:29.925Z,50.15
2022-11-17T23:44:54.639Z,60.83
2022-11-17T23:47:17.062Z,50.17
2022-11-17T23:49:39.499Z,49.42
2022-11-17T23:52:01.921Z,43.85
2022-11-17T23:54:24.354Z,40.10
2022-11-17T23:56:50.657Z,35.63
2022-11-17T23:59:13.050Z,38.58
